West Sunbury, Pennsylvania
Current Conditions -  °F | °C
As of 6:35 AM on Friday 24 Oct 2014 (Local Time) from KBTP Reporting Station
Overcast Overcast  
Wind Chill: 37°   Ceiling: 400
Heat Index: 37°   Visibility: 2mi
Dew Point: 36°   Wind: 0mph
Humidity: 93%   Direction: NA
Pressure: 30.1"   Gusts: NA
Location:  41.01°N, 79.9°W
Report Text: KBTP 241035Z AUTO 00000KT 2SM OVC004 03/02 A3010 RMK AO1
Loading
Personal Weather Stations






























Interactive Weather Map
Tropical Storm Tracking
New forecast layout! Learn more

10-Day Weather Forecast

Advertisements
Track Severe Weather on mobile